sensor_id;sensor_type;location;lat;lon;timestamp;P1;durP1;ratioP1;P2;durP2;ratioP2
8183;SDS011;4133;48.752;9.088;2022-07-11T00:02:04;2.57;;;1.30;;
8183;SDS011;4133;48.752;9.088;2022-07-11T00:04:30;1.43;;;1.33;;
8183;SDS011;4133;48.752;9.088;2022-07-11T00:06:57;2.03;;;1.20;;
8183;SDS011;4133;48.752;9.088;2022-07-11T00:09:23;1.47;;;1.37;;
8183;SDS011;4133;48.752;9.088;2022-07-11T00:11:49;2.47;;;1.40;;
8183;SDS011;4133;48.752;9.088;2022-07-11T00:14:16;1.90;;;1.40;;
8183;SDS011;4133;48.752;9.088;2022-07-11T00:16:42;1.63;;;1.40;;
8183;SDS011;4133;48.752;9.088;2022-07-11T00:19:08;1.30;;;1.20;;
8183;SDS011;4133;48.752;9.088;2022-07-11T00:21:34;1.87;;;1.40;;
8183;SDS011;4133;48.752;9.088;2022-07-11T00:24:01;6.13;;;1.33;;
8183;SDS011;4133;48.752;9.088;2022-07-11T00:26:27;1.63;;;1.10;;
8183;SDS011;4133;48.752;9.088;2022-07-11T00:28:53;3.13;;;1.20;;
8183;SDS011;4133;48.752;9.088;2022-07-11T00:31:20;1.33;;;1.20;;
8183;SDS011;4133;48.752;9.088;2022-07-11T00:33:46;3.10;;;1.27;;
8183;SDS011;4133;48.752;9.088;2022-07-11T00:36:12;1.43;;;1.17;;
8183;SDS011;4133;48.752;9.088;2022-07-11T00:38:38;2.70;;;1.10;;
8183;SDS011;4133;48.752;9.088;2022-07-11T00:41:05;0.80;;;0.80;;
8183;SDS011;4133;48.752;9.088;2022-07-11T00:43:31;1.23;;;1.13;;
8183;SDS011;4133;48.752;9.088;2022-07-11T00:45:58;1.87;;;1.40;;
8183;SDS011;4133;48.752;9.088;2022-07-11T00:48:24;2.70;;;1.23;;
8183;SDS011;4133;48.752;9.088;2022-07-11T00:50:50;1.30;;;1.20;;
8183;SDS011;4133;48.752;9.088;2022-07-11T00:53:17;2.13;;;1.20;;
8183;SDS011;4133;48.752;9.088;2022-07-11T00:55:44;1.60;;;1.50;;
8183;SDS011;4133;48.752;9.088;2022-07-11T00:58:11;2.33;;;1.37;;
8183;SDS011;4133;48.752;9.088;2022-07-11T01:00:37;2.53;;;1.30;;
8183;SDS011;4133;48.752;9.088;2022-07-11T01:03:03;2.37;;;1.40;;
8183;SDS011;4133;48.752;9.088;2022-07-11T01:05:29;2.53;;;1.70;;
8183;SDS011;4133;48.752;9.088;2022-07-11T01:07:55;1.80;;;1.40;;
8183;SDS011;4133;48.752;9.088;2022-07-11T01:10:21;1.60;;;1.30;;
8183;SDS011;4133;48.752;9.088;2022-07-11T01:12:48;2.47;;;1.37;;
8183;SDS011;4133;48.752;9.088;2022-07-11T01:15:15;2.67;;;1.53;;
8183;SDS011;4133;48.752;9.088;2022-07-11T01:17:41;2.00;;;1.70;;
8183;SDS011;4133;48.752;9.088;2022-07-11T01:20:08;4.13;;;1.60;;
8183;SDS011;4133;48.752;9.088;2022-07-11T01:22:44;1.50;;;1.40;;
8183;SDS011;4133;48.752;9.088;2022-07-11T01:25:14;2.27;;;1.37;;
8183;SDS011;4133;48.752;9.088;2022-07-11T01:27:55;1.30;;;1.20;;
8183;SDS011;4133;48.752;9.088;2022-07-11T01:30:22;2.37;;;1.43;;
8183;SDS011;4133;48.752;9.088;2022-07-11T01:32:50;2.57;;;1.37;;
8183;SDS011;4133;48.752;9.088;2022-07-11T01:35:16;2.73;;;1.30;;
8183;SDS011;4133;48.752;9.088;2022-07-11T01:37:42;1.40;;;1.17;;
8183;SDS011;4133;48.752;9.088;2022-07-11T01:40:08;1.83;;;1.50;;
8183;SDS011;4133;48.752;9.088;2022-07-11T01:42:34;1.57;;;1.20;;
8183;SDS011;4133;48.752;9.088;2022-07-11T01:45:00;2.33;;;1.40;;
8183;SDS011;4133;48.752;9.088;2022-07-11T01:47:26;1.77;;;1.37;;
8183;SDS011;4133;48.752;9.088;2022-07-11T01:49:52;2.77;;;1.50;;
8183;SDS011;4133;48.752;9.088;2022-07-11T01:52:18;1.50;;;1.20;;
8183;SDS011;4133;48.752;9.088;2022-07-11T01:54:44;1.60;;;1.30;;
8183;SDS011;4133;48.752;9.088;2022-07-11T01:57:10;1.90;;;1.30;;
8183;SDS011;4133;48.752;9.088;2022-07-11T01:59:36;1.53;;;1.43;;
8183;SDS011;4133;48.752;9.088;2022-07-11T02:02:02;3.37;;;1.50;;
8183;SDS011;4133;48.752;9.088;2022-07-11T02:04:28;2.30;;;1.60;;
8183;SDS011;4133;48.752;9.088;2022-07-11T02:06:54;1.77;;;1.43;;
8183;SDS011;4133;48.752;9.088;2022-07-11T02:09:20;2.10;;;1.50;;
8183;SDS011;4133;48.752;9.088;2022-07-11T02:11:47;1.27;;;1.17;;
8183;SDS011;4133;48.752;9.088;2022-07-11T02:14:13;2.33;;;1.57;;
8183;SDS011;4133;48.752;9.088;2022-07-11T02:16:39;2.97;;;1.30;;
8183;SDS011;4133;48.752;9.088;2022-07-11T02:19:05;4.00;;;1.80;;
8183;SDS011;4133;48.752;9.088;2022-07-11T02:21:31;3.77;;;1.53;;
8183;SDS011;4133;48.752;9.088;2022-07-11T02:23:58;1.47;;;1.20;;
8183;SDS011;4133;48.752;9.088;2022-07-11T02:26:24;1.50;;;1.40;;
8183;SDS011;4133;48.752;9.088;2022-07-11T02:28:50;1.77;;;1.30;;
8183;SDS011;4133;48.752;9.088;2022-07-11T02:31:16;1.67;;;1.30;;
8183;SDS011;4133;48.752;9.088;2022-07-11T02:33:42;1.37;;;1.23;;
8183;SDS011;4133;48.752;9.088;2022-07-11T02:36:08;2.10;;;1.40;;
8183;SDS011;4133;48.752;9.088;2022-07-11T02:38:35;2.50;;;1.23;;
8183;SDS011;4133;48.752;9.088;2022-07-11T02:41:01;3.97;;;1.53;;
8183;SDS011;4133;48.752;9.088;2022-07-11T02:43:27;1.63;;;1.20;;
8183;SDS011;4133;48.752;9.088;2022-07-11T02:45:54;1.80;;;1.40;;
8183;SDS011;4133;48.752;9.088;2022-07-11T02:48:20;1.50;;;1.40;;
8183;SDS011;4133;48.752;9.088;2022-07-11T02:50:46;1.57;;;1.20;;
8183;SDS011;4133;48.752;9.088;2022-07-11T02:53:12;2.80;;;1.70;;
8183;SDS011;4133;48.752;9.088;2022-07-11T02:55:38;1.60;;;1.50;;
8183;SDS011;4133;48.752;9.088;2022-07-11T02:58:04;5.17;;;2.20;;
8183;SDS011;4133;48.752;9.088;2022-07-11T03:00:30;3.03;;;1.80;;
8183;SDS011;4133;48.752;9.088;2022-07-11T03:02:56;4.53;;;2.20;;
8183;SDS011;4133;48.752;9.088;2022-07-11T03:05:23;2.80;;;2.03;;
8183;SDS011;4133;48.752;9.088;2022-07-11T03:07:49;3.00;;;1.70;;
8183;SDS011;4133;48.752;9.088;2022-07-11T03:10:15;2.67;;;1.57;;
8183;SDS011;4133;48.752;9.088;2022-07-11T03:12:41;4.03;;;1.70;;
8183;SDS011;4133;48.752;9.088;2022-07-11T03:15:07;4.87;;;1.70;;
8183;SDS011;4133;48.752;9.088;2022-07-11T03:17:34;2.57;;;1.43;;
8183;SDS011;4133;48.752;9.088;2022-07-11T03:20:01;2.53;;;1.70;;
8183;SDS011;4133;48.752;9.088;2022-07-11T03:22:27;2.50;;;1.60;;
8183;SDS011;4133;48.752;9.088;2022-07-11T03:24:52;1.60;;;1.50;;
8183;SDS011;4133;48.752;9.088;2022-07-11T03:27:18;2.70;;;1.60;;
8183;SDS011;4133;48.752;9.088;2022-07-11T03:29:45;2.37;;;1.77;;
8183;SDS011;4133;48.752;9.088;2022-07-11T03:32:11;2.40;;;1.40;;
8183;SDS011;4133;48.752;9.088;2022-07-11T03:34:38;1.70;;;1.60;;
8183;SDS011;4133;48.752;9.088;2022-07-11T03:37:04;1.60;;;1.50;;
8183;SDS011;4133;48.752;9.088;2022-07-11T03:39:30;1.50;;;1.40;;
8183;SDS011;4133;48.752;9.088;2022-07-11T03:41:56;2.07;;;1.87;;
8183;SDS011;4133;48.752;9.088;2022-07-11T03:44:22;1.60;;;1.50;;
8183;SDS011;4133;48.752;9.088;2022-07-11T03:46:49;1.80;;;1.60;;
8183;SDS011;4133;48.752;9.088;2022-07-11T03:49:15;2.73;;;1.40;;
8183;SDS011;4133;48.752;9.088;2022-07-11T03:51:41;1.70;;;1.60;;
8183;SDS011;4133;48.752;9.088;2022-07-11T03:54:07;4.93;;;1.70;;
8183;SDS011;4133;48.752;9.088;2022-07-11T03:56:33;3.40;;;1.73;;
8183;SDS011;4133;48.752;9.088;2022-07-11T03:58:59;1.93;;;1.50;;
8183;SDS011;4133;48.752;9.088;2022-07-11T04:01:25;1.90;;;1.63;;
8183;SDS011;4133;48.752;9.088;2022-07-11T04:03:51;1.80;;;1.50;;
8183;SDS011;4133;48.752;9.088;2022-07-11T04:06:17;2.77;;;1.80;;
8183;SDS011;4133;48.752;9.088;2022-07-11T04:08:43;2.40;;;1.60;;
8183;SDS011;4133;48.752;9.088;2022-07-11T04:11:09;2.93;;;1.90;;
8183;SDS011;4133;48.752;9.088;2022-07-11T04:13:35;2.60;;;1.63;;
8183;SDS011;4133;48.752;9.088;2022-07-11T04:16:01;1.80;;;1.60;;
8183;SDS011;4133;48.752;9.088;2022-07-11T04:18:27;2.33;;;1.90;;
8183;SDS011;4133;48.752;9.088;2022-07-11T04:20:53;1.87;;;1.60;;
8183;SDS011;4133;48.752;9.088;2022-07-11T04:23:19;2.70;;;1.70;;
8183;SDS011;4133;48.752;9.088;2022-07-11T04:25:46;2.47;;;1.60;;
8183;SDS011;4133;48.752;9.088;2022-07-11T04:28:12;2.63;;;1.67;;
8183;SDS011;4133;48.752;9.088;2022-07-11T04:30:38;3.00;;;1.53;;
8183;SDS011;4133;48.752;9.088;2022-07-11T04:33:04;2.27;;;1.80;;
8183;SDS011;4133;48.752;9.088;2022-07-11T04:35:30;2.63;;;1.73;;
8183;SDS011;4133;48.752;9.088;2022-07-11T04:37:56;2.70;;;2.00;;
8183;SDS011;4133;48.752;9.088;2022-07-11T04:40:22;2.33;;;1.73;;
8183;SDS011;4133;48.752;9.088;2022-07-11T04:42:48;2.60;;;1.60;;
8183;SDS011;4133;48.752;9.088;2022-07-11T04:45:14;1.80;;;1.70;;
8183;SDS011;4133;48.752;9.088;2022-07-11T04:47:40;2.73;;;1.63;;
8183;SDS011;4133;48.752;9.088;2022-07-11T04:50:07;2.60;;;1.90;;
8183;SDS011;4133;48.752;9.088;2022-07-11T04:52:33;1.83;;;1.73;;
8183;SDS011;4133;48.752;9.088;2022-07-11T04:54:59;3.50;;;1.80;;
8183;SDS011;4133;48.752;9.088;2022-07-11T04:57:25;1.97;;;1.70;;
8183;SDS011;4133;48.752;9.088;2022-07-11T04:59:51;4.07;;;2.00;;
8183;SDS011;4133;48.752;9.088;2022-07-11T05:02:18;2.07;;;1.73;;
8183;SDS011;4133;48.752;9.088;2022-07-11T05:04:44;5.83;;;1.90;;
8183;SDS011;4133;48.752;9.088;2022-07-11T05:07:10;1.77;;;1.67;;
8183;SDS011;4133;48.752;9.088;2022-07-11T05:09:38;3.07;;;2.10;;
8183;SDS011;4133;48.752;9.088;2022-07-11T05:12:04;3.80;;;1.77;;
8183;SDS011;4133;48.752;9.088;2022-07-11T05:14:31;1.87;;;1.60;;
8183;SDS011;4133;48.752;9.088;2022-07-11T05:16:57;2.43;;;2.00;;
8183;SDS011;4133;48.752;9.088;2022-07-11T05:19:23;1.83;;;1.60;;
8183;SDS011;4133;48.752;9.088;2022-07-11T05:21:49;3.03;;;1.87;;
8183;SDS011;4133;48.752;9.088;2022-07-11T05:24:15;5.53;;;2.10;;
8183;SDS011;4133;48.752;9.088;2022-07-11T05:26:43;2.63;;;2.43;;
8183;SDS011;4133;48.752;9.088;2022-07-11T05:29:09;2.70;;;2.50;;
8183;SDS011;4133;48.752;9.088;2022-07-11T05:31:35;2.53;;;2.33;;
8183;SDS011;4133;48.752;9.088;2022-07-11T05:34:01;3.77;;;2.50;;
8183;SDS011;4133;48.752;9.088;2022-07-11T05:36:27;3.73;;;2.80;;
8183;SDS011;4133;48.752;9.088;2022-07-11T05:38:53;4.53;;;2.70;;
8183;SDS011;4133;48.752;9.088;2022-07-11T05:41:20;2.60;;;2.40;;
8183;SDS011;4133;48.752;9.088;2022-07-11T05:43:46;6.53;;;2.72;;
8183;SDS011;4133;48.752;9.088;2022-07-11T05:46:12;2.77;;;2.27;;
8183;SDS011;4133;48.752;9.088;2022-07-11T05:48:38;2.90;;;2.40;;
8183;SDS011;4133;48.752;9.088;2022-07-11T05:51:04;3.50;;;3.00;;
8183;SDS011;4133;48.752;9.088;2022-07-11T05:53:31;3.03;;;2.83;;
8183;SDS011;4133;48.752;9.088;2022-07-11T05:55:57;3.80;;;3.27;;
8183;SDS011;4133;48.752;9.088;2022-07-11T05:58:23;5.57;;;3.50;;
8183;SDS011;4133;48.752;9.088;2022-07-11T06:00:50;3.95;;;3.40;;
8183;SDS011;4133;48.752;9.088;2022-07-11T06:03:16;3.70;;;3.40;;
8183;SDS011;4133;48.752;9.088;2022-07-11T06:05:42;3.28;;;3.00;;
8183;SDS011;4133;48.752;9.088;2022-07-11T06:08:08;3.30;;;3.10;;
8183;SDS011;4133;48.752;9.088;2022-07-11T06:10:52;3.03;;;2.67;;
8183;SDS011;4133;48.752;9.088;2022-07-11T06:13:21;3.93;;;3.10;;
8183;SDS011;4133;48.752;9.088;2022-07-11T06:15:47;6.03;;;3.60;;
8183;SDS011;4133;48.752;9.088;2022-07-11T06:18:13;4.00;;;3.10;;
8183;SDS011;4133;48.752;9.088;2022-07-11T06:20:39;2.95;;;2.42;;
8183;SDS011;4133;48.752;9.088;2022-07-11T06:23:05;2.80;;;2.60;;
8183;SDS011;4133;48.752;9.088;2022-07-11T06:25:32;4.13;;;2.73;;
8183;SDS011;4133;48.752;9.088;2022-07-11T06:27:58;3.33;;;2.75;;
8183;SDS011;4133;48.752;9.088;2022-07-11T06:30:25;3.53;;;2.70;;
8183;SDS011;4133;48.752;9.088;2022-07-11T06:32:51;3.03;;;2.67;;
8183;SDS011;4133;48.752;9.088;2022-07-11T06:35:17;5.13;;;2.90;;
8183;SDS011;4133;48.752;9.088;2022-07-11T06:37:43;3.53;;;2.83;;
8183;SDS011;4133;48.752;9.088;2022-07-11T06:40:10;2.50;;;2.30;;
8183;SDS011;4133;48.752;9.088;2022-07-11T06:42:37;2.60;;;2.40;;
8183;SDS011;4133;48.752;9.088;2022-07-11T06:45:03;2.80;;;2.60;;
8183;SDS011;4133;48.752;9.088;2022-07-11T06:47:29;2.60;;;2.40;;
8183;SDS011;4133;48.752;9.088;2022-07-11T06:49:57;3.13;;;2.55;;
8183;SDS011;4133;48.752;9.088;2022-07-11T06:52:23;2.63;;;2.43;;
8183;SDS011;4133;48.752;9.088;2022-07-11T06:54:49;4.45;;;2.20;;
8183;SDS011;4133;48.752;9.088;2022-07-11T06:57:15;3.58;;;2.42;;
8183;SDS011;4133;48.752;9.088;2022-07-11T06:59:41;3.97;;;2.43;;
8183;SDS011;4133;48.752;9.088;2022-07-11T07:02:07;3.75;;;2.33;;
8183;SDS011;4133;48.752;9.088;2022-07-11T07:04:33;3.88;;;2.70;;
8183;SDS011;4133;48.752;9.088;2022-07-11T07:07:00;5.53;;;2.80;;
8183;SDS011;4133;48.752;9.088;2022-07-11T07:09:27;4.10;;;2.67;;
8183;SDS011;4133;48.752;9.088;2022-07-11T07:11:53;4.30;;;2.78;;
8183;SDS011;4133;48.752;9.088;2022-07-11T07:14:20;4.53;;;2.50;;
8183;SDS011;4133;48.752;9.088;2022-07-11T07:16:46;3.65;;;2.58;;
8183;SDS011;4133;48.752;9.088;2022-07-11T07:19:12;2.42;;;2.20;;
8183;SDS011;4133;48.752;9.088;2022-07-11T07:21:38;5.30;;;2.17;;
8183;SDS011;4133;48.752;9.088;2022-07-11T07:24:04;3.75;;;2.35;;
8183;SDS011;4133;48.752;9.088;2022-07-11T07:26:30;2.67;;;2.08;;
8183;SDS011;4133;48.752;9.088;2022-07-11T07:28:56;4.07;;;2.10;;
8183;SDS011;4133;48.752;9.088;2022-07-11T07:31:23;2.28;;;1.98;;
8183;SDS011;4133;48.752;9.088;2022-07-11T07:33:49;2.47;;;1.90;;
8183;SDS011;4133;48.752;9.088;2022-07-11T07:36:15;3.05;;;1.80;;
8183;SDS011;4133;48.752;9.088;2022-07-11T07:38:41;3.42;;;1.80;;
8183;SDS011;4133;48.752;9.088;2022-07-11T07:41:09;2.65;;;1.60;;
8183;SDS011;4133;48.752;9.088;2022-07-11T07:43:35;1.50;;;1.40;;
8183;SDS011;4133;48.752;9.088;2022-07-11T07:46:01;1.60;;;1.50;;
8183;SDS011;4133;48.752;9.088;2022-07-11T07:48:27;1.45;;;1.30;;
8183;SDS011;4133;48.752;9.088;2022-07-11T07:50:53;2.22;;;1.40;;
8183;SDS011;4133;48.752;9.088;2022-07-11T07:53:19;1.30;;;1.20;;
8183;SDS011;4133;48.752;9.088;2022-07-11T07:55:45;1.40;;;1.30;;
8183;SDS011;4133;48.752;9.088;2022-07-11T07:58:11;3.53;;;1.40;;
8183;SDS011;4133;48.752;9.088;2022-07-11T08:00:37;1.40;;;1.30;;
8183;SDS011;4133;48.752;9.088;2022-07-11T08:03:22;1.73;;;1.25;;
8183;SDS011;4133;48.752;9.088;2022-07-11T08:05:48;1.00;;;0.95;;
8183;SDS011;4133;48.752;9.088;2022-07-11T08:08:14;1.42;;;1.25;;
8183;SDS011;4133;48.752;9.088;2022-07-11T08:10:39;1.23;;;1.10;;
8183;SDS011;4133;48.752;9.088;2022-07-11T08:13:05;1.48;;;1.35;;
8183;SDS011;4133;48.752;9.088;2022-07-11T08:15:31;1.35;;;1.25;;
8183;SDS011;4133;48.752;9.088;2022-07-11T08:17:58;1.20;;;1.10;;
8183;SDS011;4133;48.752;9.088;2022-07-11T08:20:24;1.38;;;1.27;;
8183;SDS011;4133;48.752;9.088;2022-07-11T08:22:50;1.38;;;0.95;;
8183;SDS011;4133;48.752;9.088;2022-07-11T08:25:16;1.67;;;1.05;;
8183;SDS011;4133;48.752;9.088;2022-07-11T08:27:42;1.10;;;1.10;;
8183;SDS011;4133;48.752;9.088;2022-07-11T08:30:09;1.10;;;1.10;;
8183;SDS011;4133;48.752;9.088;2022-07-11T08:32:38;1.08;;;0.98;;
8183;SDS011;4133;48.752;9.088;2022-07-11T08:35:05;1.30;;;1.20;;
8183;SDS011;4133;48.752;9.088;2022-07-11T08:37:31;0.98;;;0.90;;
8183;SDS011;4133;48.752;9.088;2022-07-11T08:39:57;0.90;;;0.90;;
8183;SDS011;4133;48.752;9.088;2022-07-11T08:42:23;1.38;;;1.13;;
8183;SDS011;4133;48.752;9.088;2022-07-11T08:44:51;1.38;;;1.02;;
8183;SDS011;4133;48.752;9.088;2022-07-11T08:47:17;1.05;;;1.02;;
8183;SDS011;4133;48.752;9.088;2022-07-11T08:49:44;1.35;;;1.00;;
8183;SDS011;4133;48.752;9.088;2022-07-11T08:52:10;1.45;;;0.98;;
8183;SDS011;4133;48.752;9.088;2022-07-11T08:54:38;1.40;;;1.00;;
8183;SDS011;4133;48.752;9.088;2022-07-11T08:57:04;1.90;;;1.10;;
8183;SDS011;4133;48.752;9.088;2022-07-11T08:59:31;1.30;;;1.02;;
8183;SDS011;4133;48.752;9.088;2022-07-11T09:01:57;62.78;;;5.38;;
8183;SDS011;4133;48.752;9.088;2022-07-11T09:04:24;3.00;;;1.10;;
8183;SDS011;4133;48.752;9.088;2022-07-11T09:06:52;1.10;;;1.00;;
8183;SDS011;4133;48.752;9.088;2022-07-11T09:09:18;1.13;;;1.10;;
8183;SDS011;4133;48.752;9.088;2022-07-11T09:11:55;1.00;;;0.90;;
8183;SDS011;4133;48.752;9.088;2022-07-11T09:16:51;0.73;;;0.73;;
8183;SDS011;4133;48.752;9.088;2022-07-11T09:19:21;0.80;;;0.80;;
8183;SDS011;4133;48.752;9.088;2022-07-11T09:24:52;2.15;;;0.68;;
8183;SDS011;4133;48.752;9.088;2022-07-11T09:27:40;1.52;;;0.70;;
8183;SDS011;4133;48.752;9.088;2022-07-11T09:30:17;1.23;;;0.70;;
8183;SDS011;4133;48.752;9.088;2022-07-11T09:32:53;2.60;;;0.70;;
8183;SDS011;4133;48.752;9.088;2022-07-11T09:35:21;0.70;;;0.70;;
8183;SDS011;4133;48.752;9.088;2022-07-11T09:37:47;1.30;;;0.45;;
8183;SDS011;4133;48.752;9.088;2022-07-11T09:40:13;0.73;;;0.73;;
8183;SDS011;4133;48.752;9.088;2022-07-11T09:42:46;1.10;;;1.10;;
8183;SDS011;4133;48.752;9.088;2022-07-11T09:45:13;0.90;;;0.90;;
8183;SDS011;4133;48.752;9.088;2022-07-11T09:47:43;0.70;;;0.70;;
8183;SDS011;4133;48.752;9.088;2022-07-11T09:50:09;0.60;;;0.60;;
8183;SDS011;4133;48.752;9.088;2022-07-11T09:52:35;0.60;;;0.60;;
8183;SDS011;4133;48.752;9.088;2022-07-11T09:55:02;0.63;;;0.55;;
8183;SDS011;4133;48.752;9.088;2022-07-11T09:57:34;0.80;;;0.80;;
8183;SDS011;4133;48.752;9.088;2022-07-11T10:00:10;1.85;;;0.90;;
8183;SDS011;4133;48.752;9.088;2022-07-11T10:02:39;0.90;;;0.90;;
8183;SDS011;4133;48.752;9.088;2022-07-11T10:05:05;1.75;;;1.00;;
8183;SDS011;4133;48.752;9.088;2022-07-11T10:07:32;0.80;;;0.80;;
8183;SDS011;4133;48.752;9.088;2022-07-11T10:09:58;0.77;;;0.77;;
8183;SDS011;4133;48.752;9.088;2022-07-11T10:12:25;0.80;;;0.80;;
8183;SDS011;4133;48.752;9.088;2022-07-11T10:14:52;4.30;;;0.85;;
8183;SDS011;4133;48.752;9.088;2022-07-11T10:17:22;0.50;;;0.50;;
8183;SDS011;4133;48.752;9.088;2022-07-11T10:19:53;1.65;;;0.85;;
8183;SDS011;4133;48.752;9.088;2022-07-11T10:22:46;0.88;;;0.88;;
8183;SDS011;4133;48.752;9.088;2022-07-11T10:27:40;0.70;;;0.70;;
8183;SDS011;4133;48.752;9.088;2022-07-11T10:30:08;1.35;;;0.88;;
8183;SDS011;4133;48.752;9.088;2022-07-11T10:32:57;0.82;;;0.82;;
8183;SDS011;4133;48.752;9.088;2022-07-11T10:35:20;1.35;;;0.80;;
8183;SDS011;4133;48.752;9.088;2022-07-11T10:37:53;1.02;;;0.80;;
8183;SDS011;4133;48.752;9.088;2022-07-11T10:43:04;2.55;;;0.90;;
8183;SDS011;4133;48.752;9.088;2022-07-11T10:45:34;1.52;;;0.80;;
8183;SDS011;4133;48.752;9.088;2022-07-11T10:48:14;1.30;;;1.20;;
8183;SDS011;4133;48.752;9.088;2022-07-11T10:50:40;0.80;;;0.80;;
8183;SDS011;4133;48.752;9.088;2022-07-11T10:53:07;0.52;;;0.52;;
8183;SDS011;4133;48.752;9.088;2022-07-11T10:55:35;0.70;;;0.70;;
8183;SDS011;4133;48.752;9.088;2022-07-11T10:58:44;1.27;;;1.20;;
8183;SDS011;4133;48.752;9.088;2022-07-11T11:01:07;0.80;;;0.80;;
8183;SDS011;4133;48.752;9.088;2022-07-11T11:03:34;1.23;;;0.80;;
8183;SDS011;4133;48.752;9.088;2022-07-11T11:06:01;2.15;;;0.70;;
8183;SDS011;4133;48.752;9.088;2022-07-11T11:16:32;0.70;;;0.70;;
8183;SDS011;4133;48.752;9.088;2022-07-11T11:18:58;0.80;;;0.80;;
8183;SDS011;4133;48.752;9.088;2022-07-11T11:21:25;0.80;;;0.80;;
8183;SDS011;4133;48.752;9.088;2022-07-11T11:29:09;1.00;;;1.00;;
8183;SDS011;4133;48.752;9.088;2022-07-11T11:31:35;0.80;;;0.80;;
8183;SDS011;4133;48.752;9.088;2022-07-11T11:34:01;22.77;;;1.92;;
8183;SDS011;4133;48.752;9.088;2022-07-11T11:36:28;2.72;;;0.90;;
8183;SDS011;4133;48.752;9.088;2022-07-11T11:38:54;0.80;;;0.80;;
8183;SDS011;4133;48.752;9.088;2022-07-11T11:41:21;49.88;;;4.60;;
8183;SDS011;4133;48.752;9.088;2022-07-11T11:43:48;1.00;;;0.90;;
8183;SDS011;4133;48.752;9.088;2022-07-11T11:46:14;2.50;;;1.40;;
8183;SDS011;4133;48.752;9.088;2022-07-11T11:48:40;1.30;;;1.20;;
8183;SDS011;4133;48.752;9.088;2022-07-11T11:51:14;1.23;;;1.02;;
8183;SDS011;4133;48.752;9.088;2022-07-11T11:53:42;2.28;;;1.20;;
8183;SDS011;4133;48.752;9.088;2022-07-11T11:58:38;1.00;;;1.00;;
8183;SDS011;4133;48.752;9.088;2022-07-11T12:01:04;1.48;;;1.27;;
8183;SDS011;4133;48.752;9.088;2022-07-11T12:03:50;1.70;;;0.98;;
8183;SDS011;4133;48.752;9.088;2022-07-11T12:06:17;1.02;;;0.90;;
8183;SDS011;4133;48.752;9.088;2022-07-11T12:08:46;1.58;;;0.90;;
8183;SDS011;4133;48.752;9.088;2022-07-11T12:11:13;0.88;;;0.88;;
8183;SDS011;4133;48.752;9.088;2022-07-11T12:13:40;1.33;;;1.00;;
8183;SDS011;4133;48.752;9.088;2022-07-11T12:16:15;1.15;;;1.05;;
8183;SDS011;4133;48.752;9.088;2022-07-11T12:19:00;1.27;;;1.15;;
8183;SDS011;4133;48.752;9.088;2022-07-11T12:21:27;1.55;;;1.35;;
8183;SDS011;4133;48.752;9.088;2022-07-11T12:23:55;1.30;;;1.20;;
8183;SDS011;4133;48.752;9.088;2022-07-11T12:26:21;2.80;;;1.08;;
8183;SDS011;4133;48.752;9.088;2022-07-11T12:34:06;1.67;;;1.20;;
8183;SDS011;4133;48.752;9.088;2022-07-11T12:36:32;1.30;;;1.20;;
8183;SDS011;4133;48.752;9.088;2022-07-11T12:38:58;1.10;;;1.10;;
8183;SDS011;4133;48.752;9.088;2022-07-11T12:41:24;1.90;;;1.02;;
8183;SDS011;4133;48.752;9.088;2022-07-11T12:43:51;2.00;;;1.00;;
8183;SDS011;4133;48.752;9.088;2022-07-11T12:46:39;1.17;;;1.10;;
8183;SDS011;4133;48.752;9.088;2022-07-11T12:49:07;1.30;;;1.20;;
8183;SDS011;4133;48.752;9.088;2022-07-11T12:51:34;2.08;;;1.23;;
8183;SDS011;4133;48.752;9.088;2022-07-11T12:54:01;1.17;;;1.10;;
8183;SDS011;4133;48.752;9.088;2022-07-11T12:56:27;1.42;;;1.10;;
8183;SDS011;4133;48.752;9.088;2022-07-11T12:58:53;1.10;;;1.00;;
8183;SDS011;4133;48.752;9.088;2022-07-11T13:01:19;1.15;;;1.10;;
8183;SDS011;4133;48.752;9.088;2022-07-11T13:03:45;8.15;;;1.65;;
8183;SDS011;4133;48.752;9.088;2022-07-11T13:06:11;26.98;;;2.30;;
8183;SDS011;4133;48.752;9.088;2022-07-11T13:08:37;1.52;;;1.20;;
8183;SDS011;4133;48.752;9.088;2022-07-11T13:11:20;1.30;;;1.20;;
8183;SDS011;4133;48.752;9.088;2022-07-11T13:13:50;1.70;;;1.10;;
8183;SDS011;4133;48.752;9.088;2022-07-11T13:16:17;2.95;;;1.42;;
8183;SDS011;4133;48.752;9.088;2022-07-11T13:18:43;1.17;;;1.10;;
8183;SDS011;4133;48.752;9.088;2022-07-11T13:21:10;1.30;;;1.20;;
8183;SDS011;4133;48.752;9.088;2022-07-11T13:23:37;1.95;;;1.20;;
8183;SDS011;4133;48.752;9.088;2022-07-11T13:26:03;1.13;;;1.13;;
8183;SDS011;4133;48.752;9.088;2022-07-11T13:28:30;2.33;;;1.25;;
8183;SDS011;4133;48.752;9.088;2022-07-11T13:30:56;5.60;;;1.48;;
8183;SDS011;4133;48.752;9.088;2022-07-11T13:33:22;1.40;;;1.30;;
8183;SDS011;4133;48.752;9.088;2022-07-11T13:35:48;2.20;;;1.20;;
8183;SDS011;4133;48.752;9.088;2022-07-11T13:38:15;5.53;;;1.50;;
8183;SDS011;4133;48.752;9.088;2022-07-11T13:40:41;1.40;;;1.30;;
8183;SDS011;4133;48.752;9.088;2022-07-11T13:43:08;1.25;;;1.25;;
8183;SDS011;4133;48.752;9.088;2022-07-11T13:45:34;6.72;;;1.77;;
8183;SDS011;4133;48.752;9.088;2022-07-11T13:48:01;7.03;;;1.67;;
8183;SDS011;4133;48.752;9.088;2022-07-11T13:50:27;3.85;;;2.22;;
8183;SDS011;4133;48.752;9.088;2022-07-11T13:52:53;2.90;;;1.77;;
8183;SDS011;4133;48.752;9.088;2022-07-11T13:55:20;4.72;;;1.75;;
8183;SDS011;4133;48.752;9.088;2022-07-11T13:57:56;1.70;;;1.33;;
8183;SDS011;4133;48.752;9.088;2022-07-11T14:00:23;3.72;;;1.40;;
8183;SDS011;4133;48.752;9.088;2022-07-11T14:02:50;1.63;;;1.40;;
8183;SDS011;4133;48.752;9.088;2022-07-11T14:05:16;2.17;;;1.45;;
8183;SDS011;4133;48.752;9.088;2022-07-11T14:07:46;2.65;;;1.92;;
8183;SDS011;4133;48.752;9.088;2022-07-11T14:10:12;2.70;;;1.67;;
8183;SDS011;4133;48.752;9.088;2022-07-11T14:12:39;6.13;;;1.70;;
8183;SDS011;4133;48.752;9.088;2022-07-11T14:15:05;44.58;;;3.17;;
8183;SDS011;4133;48.752;9.088;2022-07-11T14:17:33;2.17;;;1.40;;
8183;SDS011;4133;48.752;9.088;2022-07-11T14:19:59;7.22;;;1.20;;
8183;SDS011;4133;48.752;9.088;2022-07-11T14:22:25;2.47;;;1.33;;
8183;SDS011;4133;48.752;9.088;2022-07-11T14:24:51;1.90;;;1.40;;
8183;SDS011;4133;48.752;9.088;2022-07-11T14:27:17;1.92;;;1.20;;
8183;SDS011;4133;48.752;9.088;2022-07-11T14:29:43;1.50;;;1.40;;
8183;SDS011;4133;48.752;9.088;2022-07-11T14:32:13;1.52;;;1.25;;
8183;SDS011;4133;48.752;9.088;2022-07-11T14:34:39;1.42;;;1.33;;
8183;SDS011;4133;48.752;9.088;2022-07-11T14:37:05;1.55;;;1.45;;
8183;SDS011;4133;48.752;9.088;2022-07-11T14:39:31;2.45;;;1.70;;
8183;SDS011;4133;48.752;9.088;2022-07-11T14:41:58;2.75;;;1.50;;
8183;SDS011;4133;48.752;9.088;2022-07-11T14:44:25;1.40;;;1.30;;
8183;SDS011;4133;48.752;9.088;2022-07-11T14:46:51;5.47;;;1.70;;
8183;SDS011;4133;48.752;9.088;2022-07-11T14:49:17;2.25;;;1.50;;
8183;SDS011;4133;48.752;9.088;2022-07-11T14:51:43;1.95;;;1.50;;
8183;SDS011;4133;48.752;9.088;2022-07-11T14:54:09;1.88;;;1.70;;
8183;SDS011;4133;48.752;9.088;2022-07-11T14:56:37;2.40;;;1.63;;
8183;SDS011;4133;48.752;9.088;2022-07-11T14:59:04;2.88;;;1.40;;
8183;SDS011;4133;48.752;9.088;2022-07-11T15:01:30;2.33;;;1.30;;
8183;SDS011;4133;48.752;9.088;2022-07-11T15:03:56;1.60;;;1.50;;
8183;SDS011;4133;48.752;9.088;2022-07-11T15:06:22;2.95;;;1.30;;
8183;SDS011;4133;48.752;9.088;2022-07-11T15:09:08;3.10;;;1.40;;
8183;SDS011;4133;48.752;9.088;2022-07-11T15:11:53;2.08;;;1.52;;
8183;SDS011;4133;48.752;9.088;2022-07-11T15:14:37;4.07;;;1.60;;
8183;SDS011;4133;48.752;9.088;2022-07-11T15:17:03;3.25;;;1.60;;
8183;SDS011;4133;48.752;9.088;2022-07-11T15:19:29;2.65;;;1.40;;
8183;SDS011;4133;48.752;9.088;2022-07-11T15:21:55;2.00;;;1.55;;
8183;SDS011;4133;48.752;9.088;2022-07-11T15:24:21;2.53;;;1.60;;
8183;SDS011;4133;48.752;9.088;2022-07-11T15:26:48;3.85;;;1.40;;
8183;SDS011;4133;48.752;9.088;2022-07-11T15:29:14;3.08;;;1.52;;
8183;SDS011;4133;48.752;9.088;2022-07-11T15:31:40;1.33;;;1.30;;
8183;SDS011;4133;48.752;9.088;2022-07-11T15:34:06;9.77;;;1.70;;
8183;SDS011;4133;48.752;9.088;2022-07-11T15:36:32;2.28;;;1.38;;
8183;SDS011;4133;48.752;9.088;2022-07-11T15:38:58;2.42;;;1.52;;
8183;SDS011;4133;48.752;9.088;2022-07-11T15:41:24;1.83;;;1.40;;
8183;SDS011;4133;48.752;9.088;2022-07-11T15:43:50;1.88;;;1.20;;
8183;SDS011;4133;48.752;9.088;2022-07-11T15:46:17;1.98;;;1.50;;
8183;SDS011;4133;48.752;9.088;2022-07-11T15:48:43;2.17;;;1.50;;